sensor_id;sensor_type;location;lat;lon;timestamp;temperature;humidity
837;DHT22;400;53.550;9.932;2023-07-20T00:00:11;15.90;1.00
837;DHT22;400;53.550;9.932;2023-07-20T00:02:41;15.90;1.00
837;DHT22;400;53.550;9.932;2023-07-20T00:05:08;15.90;1.00
837;DHT22;400;53.550;9.932;2023-07-20T00:07:34;15.80;1.00
837;DHT22;400;53.550;9.932;2023-07-20T00:10:01;15.90;1.00
837;DHT22;400;53.550;9.932;2023-07-20T00:12:28;15.90;1.00
837;DHT22;400;53.550;9.932;2023-07-20T00:14:55;16.00;1.00
837;DHT22;400;53.550;9.932;2023-07-20T00:17:22;16.00;1.00
837;DHT22;400;53.550;9.932;2023-07-20T00:19:50;16.00;1.00
837;DHT22;400;53.550;9.932;2023-07-20T00:22:17;16.00;1.00
837;DHT22;400;53.550;9.932;2023-07-20T00:24:44;16.00;1.00
837;DHT22;400;53.550;9.932;2023-07-20T00:27:10;16.00;1.00
837;DHT22;400;53.550;9.932;2023-07-20T00:29:37;16.00;1.00
837;DHT22;400;53.550;9.932;2023-07-20T00:32:05;16.00;1.00
837;DHT22;400;53.550;9.932;2023-07-20T00:34:32;16.00;1.00
837;DHT22;400;53.550;9.932;2023-07-20T00:37:01;16.10;1.00
837;DHT22;400;53.550;9.932;2023-07-20T00:39:28;16.20;1.00
837;DHT22;400;53.550;9.932;2023-07-20T00:41:55;16.10;1.00
837;DHT22;400;53.550;9.932;2023-07-20T00:44:22;16.20;1.00
837;DHT22;400;53.550;9.932;2023-07-20T00:46:49;16.10;1.00
837;DHT22;400;53.550;9.932;2023-07-20T00:49:16;16.10;1.00
837;DHT22;400;53.550;9.932;2023-07-20T00:51:47;16.00;1.00
837;DHT22;400;53.550;9.932;2023-07-20T00:54:16;16.10;1.00
837;DHT22;400;53.550;9.932;2023-07-20T00:56:43;16.20;1.00
837;DHT22;400;53.550;9.932;2023-07-20T00:59:11;16.30;1.00
837;DHT22;400;53.550;9.932;2023-07-20T01:01:38;16.20;1.00
837;DHT22;400;53.550;9.932;2023-07-20T01:04:05;16.20;1.00
837;DHT22;400;53.550;9.932;2023-07-20T01:06:39;16.20;1.00
837;DHT22;400;53.550;9.932;2023-07-20T01:09:12;16.10;1.00
837;DHT22;400;53.550;9.932;2023-07-20T01:11:49;16.10;1.00
837;DHT22;400;53.550;9.932;2023-07-20T01:14:20;16.00;1.00
837;DHT22;400;53.550;9.932;2023-07-20T01:16:47;16.00;1.00
837;DHT22;400;53.550;9.932;2023-07-20T01:19:15;16.00;1.00
837;DHT22;400;53.550;9.932;2023-07-20T01:21:47;16.00;1.00
837;DHT22;400;53.550;9.932;2023-07-20T01:24:37;15.80;1.00
837;DHT22;400;53.550;9.932;2023-07-20T01:30:35;15.80;1.00
837;DHT22;400;53.550;9.932;2023-07-20T01:33:12;15.80;1.00
837;DHT22;400;53.550;9.932;2023-07-20T01:35:41;15.70;1.00
837;DHT22;400;53.550;9.932;2023-07-20T01:38:10;15.60;12.20
837;DHT22;400;53.550;9.932;2023-07-20T01:40:38;15.70;29.60
837;DHT22;400;53.550;9.932;2023-07-20T01:43:06;15.70;53.20
837;DHT22;400;53.550;9.932;2023-07-20T01:45:32;15.60;15.90
837;DHT22;400;53.550;9.932;2023-07-20T01:47:59;15.80;26.30
837;DHT22;400;53.550;9.932;2023-07-20T01:50:27;15.80;8.50
837;DHT22;400;53.550;9.932;2023-07-20T01:52:54;15.90;5.00
837;DHT22;400;53.550;9.932;2023-07-20T01:55:22;16.00;1.00
837;DHT22;400;53.550;9.932;2023-07-20T01:57:50;15.90;1.00
837;DHT22;400;53.550;9.932;2023-07-20T02:00:19;15.90;1.00
837;DHT22;400;53.550;9.932;2023-07-20T02:02:49;15.90;1.00
837;DHT22;400;53.550;9.932;2023-07-20T02:05:16;15.80;1.00
837;DHT22;400;53.550;9.932;2023-07-20T02:07:44;15.70;1.00
837;DHT22;400;53.550;9.932;2023-07-20T02:10:12;15.60;42.90
837;DHT22;400;53.550;9.932;2023-07-20T02:12:39;15.60;89.10
837;DHT22;400;53.550;9.932;2023-07-20T02:15:07;15.50;99.90
837;DHT22;400;53.550;9.932;2023-07-20T02:17:34;15.40;99.90
837;DHT22;400;53.550;9.932;2023-07-20T02:20:04;15.40;99.90
837;DHT22;400;53.550;9.932;2023-07-20T02:22:38;15.50;99.90
837;DHT22;400;53.550;9.932;2023-07-20T02:25:10;15.50;99.90
837;DHT22;400;53.550;9.932;2023-07-20T02:27:37;15.50;99.90
837;DHT22;400;53.550;9.932;2023-07-20T02:30:06;15.60;99.90
837;DHT22;400;53.550;9.932;2023-07-20T02:32:34;15.60;99.90
837;DHT22;400;53.550;9.932;2023-07-20T02:35:01;15.70;99.90
837;DHT22;400;53.550;9.932;2023-07-20T02:37:29;15.60;99.90
837;DHT22;400;53.550;9.932;2023-07-20T02:39:56;15.60;99.90
837;DHT22;400;53.550;9.932;2023-07-20T02:42:24;15.50;99.90
837;DHT22;400;53.550;9.932;2023-07-20T02:44:51;15.50;99.90
837;DHT22;400;53.550;9.932;2023-07-20T02:47:18;15.60;99.90
837;DHT22;400;53.550;9.932;2023-07-20T02:49:45;15.60;99.90
837;DHT22;400;53.550;9.932;2023-07-20T02:52:12;15.60;99.90
837;DHT22;400;53.550;9.932;2023-07-20T02:54:38;15.60;99.90
837;DHT22;400;53.550;9.932;2023-07-20T02:57:06;15.60;99.90
837;DHT22;400;53.550;9.932;2023-07-20T02:59:34;15.50;99.90
837;DHT22;400;53.550;9.932;2023-07-20T03:02:01;15.40;99.90
837;DHT22;400;53.550;9.932;2023-07-20T03:04:29;15.40;99.90
837;DHT22;400;53.550;9.932;2023-07-20T03:06:55;15.40;99.90
837;DHT22;400;53.550;9.932;2023-07-20T03:09:22;15.40;99.90
837;DHT22;400;53.550;9.932;2023-07-20T03:11:50;15.30;99.90
837;DHT22;400;53.550;9.932;2023-07-20T03:14:21;15.20;99.90
837;DHT22;400;53.550;9.932;2023-07-20T03:16:50;15.30;99.90
837;DHT22;400;53.550;9.932;2023-07-20T03:19:17;15.30;99.90
837;DHT22;400;53.550;9.932;2023-07-20T03:21:44;15.30;99.90
837;DHT22;400;53.550;9.932;2023-07-20T03:24:11;15.30;99.90
837;DHT22;400;53.550;9.932;2023-07-20T03:26:38;15.30;99.90
837;DHT22;400;53.550;9.932;2023-07-20T03:29:05;15.30;99.90
837;DHT22;400;53.550;9.932;2023-07-20T03:31:32;15.30;99.90
837;DHT22;400;53.550;9.932;2023-07-20T03:34:00;15.30;99.90
837;DHT22;400;53.550;9.932;2023-07-20T03:36:28;15.30;99.90
837;DHT22;400;53.550;9.932;2023-07-20T03:38:58;15.30;99.90
837;DHT22;400;53.550;9.932;2023-07-20T03:41:27;15.30;99.90
837;DHT22;400;53.550;9.932;2023-07-20T03:43:56;15.40;99.90
837;DHT22;400;53.550;9.932;2023-07-20T03:46:24;15.50;99.90
837;DHT22;400;53.550;9.932;2023-07-20T03:48:50;15.60;99.90
837;DHT22;400;53.550;9.932;2023-07-20T03:51:19;15.60;99.90
837;DHT22;400;53.550;9.932;2023-07-20T03:53:46;15.70;99.90
837;DHT22;400;53.550;9.932;2023-07-20T03:56:13;15.70;99.90
837;DHT22;400;53.550;9.932;2023-07-20T03:58:40;15.60;99.90
837;DHT22;400;53.550;9.932;2023-07-20T04:01:07;15.60;99.90
837;DHT22;400;53.550;9.932;2023-07-20T04:03:34;15.70;99.90
837;DHT22;400;53.550;9.932;2023-07-20T04:06:02;15.70;99.90
837;DHT22;400;53.550;9.932;2023-07-20T04:08:30;15.80;99.90
837;DHT22;400;53.550;9.932;2023-07-20T04:10:57;15.80;99.90
837;DHT22;400;53.550;9.932;2023-07-20T04:13:24;15.70;99.90
837;DHT22;400;53.550;9.932;2023-07-20T04:15:51;15.70;99.90
837;DHT22;400;53.550;9.932;2023-07-20T04:18:17;15.70;99.90
837;DHT22;400;53.550;9.932;2023-07-20T04:20:45;15.70;99.90
837;DHT22;400;53.550;9.932;2023-07-20T04:23:12;15.70;99.90
837;DHT22;400;53.550;9.932;2023-07-20T04:25:41;15.70;99.90
837;DHT22;400;53.550;9.932;2023-07-20T04:28:10;15.60;99.90
837;DHT22;400;53.550;9.932;2023-07-20T04:30:39;15.50;99.90
837;DHT22;400;53.550;9.932;2023-07-20T04:33:07;15.60;99.90
837;DHT22;400;53.550;9.932;2023-07-20T04:35:49;15.60;99.90
837;DHT22;400;53.550;9.932;2023-07-20T04:38:16;15.40;99.90
837;DHT22;400;53.550;9.932;2023-07-20T04:40:46;15.60;99.90
837;DHT22;400;53.550;9.932;2023-07-20T04:43:13;15.70;99.90
837;DHT22;400;53.550;9.932;2023-07-20T04:45:41;15.80;99.90
837;DHT22;400;53.550;9.932;2023-07-20T04:48:11;15.80;99.90
837;DHT22;400;53.550;9.932;2023-07-20T04:50:38;15.80;99.90
837;DHT22;400;53.550;9.932;2023-07-20T04:53:05;15.80;99.90
837;DHT22;400;53.550;9.932;2023-07-20T04:55:32;15.80;99.90
837;DHT22;400;53.550;9.932;2023-07-20T04:58:01;15.80;99.90
837;DHT22;400;53.550;9.932;2023-07-20T05:00:29;15.90;99.90
837;DHT22;400;53.550;9.932;2023-07-20T05:02:56;15.90;99.90
837;DHT22;400;53.550;9.932;2023-07-20T05:05:23;16.00;91.20
837;DHT22;400;53.550;9.932;2023-07-20T05:07:50;16.00;72.30
837;DHT22;400;53.550;9.932;2023-07-20T05:10:17;16.00;99.90
837;DHT22;400;53.550;9.932;2023-07-20T05:12:44;16.10;99.90
837;DHT22;400;53.550;9.932;2023-07-20T05:15:12;16.10;72.10
837;DHT22;400;53.550;9.932;2023-07-20T05:17:40;16.10;99.90
837;DHT22;400;53.550;9.932;2023-07-20T05:20:08;16.10;97.00
837;DHT22;400;53.550;9.932;2023-07-20T05:22:38;16.20;96.90
837;DHT22;400;53.550;9.932;2023-07-20T05:25:08;16.10;74.80
837;DHT22;400;53.550;9.932;2023-07-20T05:27:37;16.00;83.90
837;DHT22;400;53.550;9.932;2023-07-20T05:30:05;16.00;92.80
837;DHT22;400;53.550;9.932;2023-07-20T05:32:34;16.10;99.90
837;DHT22;400;53.550;9.932;2023-07-20T05:35:01;16.20;99.90
837;DHT22;400;53.550;9.932;2023-07-20T05:37:28;16.00;55.00
837;DHT22;400;53.550;9.932;2023-07-20T05:39:54;16.10;88.50
837;DHT22;400;53.550;9.932;2023-07-20T05:42:22;16.00;37.80
837;DHT22;400;53.550;9.932;2023-07-20T05:44:49;16.00;42.40
837;DHT22;400;53.550;9.932;2023-07-20T05:47:18;16.00;16.60
837;DHT22;400;53.550;9.932;2023-07-20T05:49:46;16.00;72.00
837;DHT22;400;53.550;9.932;2023-07-20T05:52:13;16.20;63.90
837;DHT22;400;53.550;9.932;2023-07-20T05:54:40;16.20;47.20
837;DHT22;400;53.550;9.932;2023-07-20T05:57:07;16.20;30.80
837;DHT22;400;53.550;9.932;2023-07-20T05:59:35;16.30;1.00
837;DHT22;400;53.550;9.932;2023-07-20T06:02:02;16.30;11.30
837;DHT22;400;53.550;9.932;2023-07-20T06:04:29;16.30;9.60
837;DHT22;400;53.550;9.932;2023-07-20T06:06:57;16.50;13.80
837;DHT22;400;53.550;9.932;2023-07-20T06:09:24;16.60;1.00
837;DHT22;400;53.550;9.932;2023-07-20T06:11:52;16.60;1.00
837;DHT22;400;53.550;9.932;2023-07-20T06:14:19;16.70;1.00
837;DHT22;400;53.550;9.932;2023-07-20T06:16:46;16.70;1.00
837;DHT22;400;53.550;9.932;2023-07-20T06:19:13;16.70;1.00
837;DHT22;400;53.550;9.932;2023-07-20T06:21:40;16.70;1.00
837;DHT22;400;53.550;9.932;2023-07-20T06:24:09;16.90;1.00
837;DHT22;400;53.550;9.932;2023-07-20T06:26:36;17.10;1.00
837;DHT22;400;53.550;9.932;2023-07-20T06:29:10;17.10;1.00
837;DHT22;400;53.550;9.932;2023-07-20T06:31:40;17.20;1.00
837;DHT22;400;53.550;9.932;2023-07-20T06:34:13;17.20;1.00
837;DHT22;400;53.550;9.932;2023-07-20T06:36:44;17.10;1.00
837;DHT22;400;53.550;9.932;2023-07-20T06:39:15;17.10;1.00
837;DHT22;400;53.550;9.932;2023-07-20T06:41:43;17.00;1.00
837;DHT22;400;53.550;9.932;2023-07-20T06:44:13;16.90;1.00
837;DHT22;400;53.550;9.932;2023-07-20T06:46:40;16.70;1.00
837;DHT22;400;53.550;9.932;2023-07-20T06:49:07;16.80;1.00
837;DHT22;400;53.550;9.932;2023-07-20T06:51:34;16.80;1.00
837;DHT22;400;53.550;9.932;2023-07-20T06:54:02;16.80;1.00
837;DHT22;400;53.550;9.932;2023-07-20T06:56:34;16.70;1.00
837;DHT22;400;53.550;9.932;2023-07-20T06:59:04;16.80;1.00
837;DHT22;400;53.550;9.932;2023-07-20T07:01:31;17.00;1.00
837;DHT22;400;53.550;9.932;2023-07-20T07:03:58;17.10;1.00
837;DHT22;400;53.550;9.932;2023-07-20T07:06:28;17.20;1.00
837;DHT22;400;53.550;9.932;2023-07-20T07:08:55;17.20;1.00
837;DHT22;400;53.550;9.932;2023-07-20T07:11:22;17.20;1.00
837;DHT22;400;53.550;9.932;2023-07-20T07:13:50;17.20;1.00
837;DHT22;400;53.550;9.932;2023-07-20T07:16:17;17.40;1.00
837;DHT22;400;53.550;9.932;2023-07-20T07:18:45;17.50;1.00
837;DHT22;400;53.550;9.932;2023-07-20T07:21:13;17.60;1.00
837;DHT22;400;53.550;9.932;2023-07-20T07:23:40;17.70;1.00
837;DHT22;400;53.550;9.932;2023-07-20T07:26:07;17.80;1.00
837;DHT22;400;53.550;9.932;2023-07-20T07:28:34;18.10;1.00
837;DHT22;400;53.550;9.932;2023-07-20T07:31:05;18.30;1.00
837;DHT22;400;53.550;9.932;2023-07-20T07:33:34;18.10;1.00
837;DHT22;400;53.550;9.932;2023-07-20T07:36:05;18.10;1.00
837;DHT22;400;53.550;9.932;2023-07-20T07:38:34;17.90;1.00
837;DHT22;400;53.550;9.932;2023-07-20T07:41:01;17.80;1.00
837;DHT22;400;53.550;9.932;2023-07-20T07:43:29;17.60;1.00
837;DHT22;400;53.550;9.932;2023-07-20T07:46:05;17.70;1.00
837;DHT22;400;53.550;9.932;2023-07-20T07:48:40;17.50;1.00
837;DHT22;400;53.550;9.932;2023-07-20T07:51:08;17.60;1.00
837;DHT22;400;53.550;9.932;2023-07-20T07:53:35;17.70;1.00
837;DHT22;400;53.550;9.932;2023-07-20T07:56:03;17.80;1.00
837;DHT22;400;53.550;9.932;2023-07-20T07:58:31;17.90;1.00
837;DHT22;400;53.550;9.932;2023-07-20T08:00:59;17.90;1.00
837;DHT22;400;53.550;9.932;2023-07-20T08:03:27;18.00;1.00
837;DHT22;400;53.550;9.932;2023-07-20T08:05:54;18.00;1.00
837;DHT22;400;53.550;9.932;2023-07-20T08:08:22;18.10;1.00
837;DHT22;400;53.550;9.932;2023-07-20T08:10:48;18.10;1.00
837;DHT22;400;53.550;9.932;2023-07-20T08:13:15;18.10;1.00
837;DHT22;400;53.550;9.932;2023-07-20T08:15:49;18.10;1.00
837;DHT22;400;53.550;9.932;2023-07-20T08:18:18;18.20;1.00
837;DHT22;400;53.550;9.932;2023-07-20T08:20:47;18.00;1.00
837;DHT22;400;53.550;9.932;2023-07-20T08:23:14;18.00;1.00
837;DHT22;400;53.550;9.932;2023-07-20T08:25:41;18.10;1.00
837;DHT22;400;53.550;9.932;2023-07-20T08:28:10;18.20;1.00
837;DHT22;400;53.550;9.932;2023-07-20T08:30:41;18.30;1.00
837;DHT22;400;53.550;9.932;2023-07-20T08:33:09;18.30;1.00
837;DHT22;400;53.550;9.932;2023-07-20T08:35:38;18.40;1.00
837;DHT22;400;53.550;9.932;2023-07-20T08:38:08;18.70;1.00
837;DHT22;400;53.550;9.932;2023-07-20T08:40:40;18.80;1.00
837;DHT22;400;53.550;9.932;2023-07-20T08:43:07;18.70;1.00
837;DHT22;400;53.550;9.932;2023-07-20T08:45:36;18.60;1.00
837;DHT22;400;53.550;9.932;2023-07-20T08:48:08;18.20;1.00
837;DHT22;400;53.550;9.932;2023-07-20T08:50:40;18.20;1.00
837;DHT22;400;53.550;9.932;2023-07-20T08:53:13;18.10;1.00
837;DHT22;400;53.550;9.932;2023-07-20T08:55:42;18.10;1.00
837;DHT22;400;53.550;9.932;2023-07-20T08:58:12;18.20;1.00
837;DHT22;400;53.550;9.932;2023-07-20T09:00:41;18.10;1.00
837;DHT22;400;53.550;9.932;2023-07-20T09:03:08;18.20;1.00
837;DHT22;400;53.550;9.932;2023-07-20T09:05:35;18.40;1.00
837;DHT22;400;53.550;9.932;2023-07-20T09:08:04;18.50;1.00
837;DHT22;400;53.550;9.932;2023-07-20T09:10:32;18.70;1.00
837;DHT22;400;53.550;9.932;2023-07-20T09:13:00;18.80;1.00
837;DHT22;400;53.550;9.932;2023-07-20T09:15:28;18.90;1.00
837;DHT22;400;53.550;9.932;2023-07-20T09:17:58;18.90;1.00
837;DHT22;400;53.550;9.932;2023-07-20T09:20:27;19.10;1.00
837;DHT22;400;53.550;9.932;2023-07-20T09:22:57;19.20;1.00
837;DHT22;400;53.550;9.932;2023-07-20T09:25:24;19.20;1.00
837;DHT22;400;53.550;9.932;2023-07-20T09:27:52;19.20;1.00
837;DHT22;400;53.550;9.932;2023-07-20T09:30:25;18.80;1.00
837;DHT22;400;53.550;9.932;2023-07-20T09:32:52;18.50;1.00
837;DHT22;400;53.550;9.932;2023-07-20T09:35:23;17.80;1.00
837;DHT22;400;53.550;9.932;2023-07-20T09:37:53;17.90;1.00
837;DHT22;400;53.550;9.932;2023-07-20T09:40:21;17.90;1.00
837;DHT22;400;53.550;9.932;2023-07-20T09:42:53;17.60;1.00
837;DHT22;400;53.550;9.932;2023-07-20T09:45:29;17.60;1.00
837;DHT22;400;53.550;9.932;2023-07-20T09:48:03;17.50;1.00
837;DHT22;400;53.550;9.932;2023-07-20T09:50:30;17.40;1.00
837;DHT22;400;53.550;9.932;2023-07-20T09:52:58;17.30;1.00
837;DHT22;400;53.550;9.932;2023-07-20T09:55:27;17.30;1.00
837;DHT22;400;53.550;9.932;2023-07-20T09:57:58;17.50;1.00
837;DHT22;400;53.550;9.932;2023-07-20T10:00:28;17.60;1.00
837;DHT22;400;53.550;9.932;2023-07-20T10:02:56;17.80;1.00
837;DHT22;400;53.550;9.932;2023-07-20T10:05:28;17.90;1.00
837;DHT22;400;53.550;9.932;2023-07-20T10:08:03;18.10;1.00
837;DHT22;400;53.550;9.932;2023-07-20T10:10:33;18.30;1.00
837;DHT22;400;53.550;9.932;2023-07-20T10:13:03;18.50;1.00
837;DHT22;400;53.550;9.932;2023-07-20T10:15:36;18.40;1.00
837;DHT22;400;53.550;9.932;2023-07-20T10:18:17;18.40;1.00
837;DHT22;400;53.550;9.932;2023-07-20T10:20:47;18.50;1.00
837;DHT22;400;53.550;9.932;2023-07-20T10:23:15;18.80;1.00
837;DHT22;400;53.550;9.932;2023-07-20T10:25:43;18.90;1.00
837;DHT22;400;53.550;9.932;2023-07-20T10:28:13;18.90;1.00
837;DHT22;400;53.550;9.932;2023-07-20T10:30:43;19.00;1.00
837;DHT22;400;53.550;9.932;2023-07-20T10:33:11;19.10;1.00
837;DHT22;400;53.550;9.932;2023-07-20T10:35:51;19.10;1.00
837;DHT22;400;53.550;9.932;2023-07-20T10:38:18;19.40;1.00
837;DHT22;400;53.550;9.932;2023-07-20T10:40:54;19.20;1.00
837;DHT22;400;53.550;9.932;2023-07-20T10:43:23;19.00;1.00
837;DHT22;400;53.550;9.932;2023-07-20T10:45:52;18.80;1.00
837;DHT22;400;53.550;9.932;2023-07-20T10:48:21;18.60;1.00
837;DHT22;400;53.550;9.932;2023-07-20T10:51:11;18.60;1.00
837;DHT22;400;53.550;9.932;2023-07-20T10:53:39;18.80;1.00
837;DHT22;400;53.550;9.932;2023-07-20T10:56:11;19.00;1.00
837;DHT22;400;53.550;9.932;2023-07-20T10:58:41;19.10;1.00
837;DHT22;400;53.550;9.932;2023-07-20T11:01:08;18.90;1.00
837;DHT22;400;53.550;9.932;2023-07-20T11:03:37;18.90;1.00
837;DHT22;400;53.550;9.932;2023-07-20T11:06:31;18.90;1.00
837;DHT22;400;53.550;9.932;2023-07-20T11:09:06;18.90;1.00
837;DHT22;400;53.550;9.932;2023-07-20T11:11:39;18.50;1.00
837;DHT22;400;53.550;9.932;2023-07-20T11:14:22;18.50;1.00
837;DHT22;400;53.550;9.932;2023-07-20T11:16:53;18.50;1.00
837;DHT22;400;53.550;9.932;2023-07-20T11:19:22;18.50;1.00
837;DHT22;400;53.550;9.932;2023-07-20T11:21:52;18.50;1.00
837;DHT22;400;53.550;9.932;2023-07-20T11:24:20;18.30;1.00
837;DHT22;400;53.550;9.932;2023-07-20T11:26:48;18.30;1.00
837;DHT22;400;53.550;9.932;2023-07-20T11:29:18;18.30;1.00
837;DHT22;400;53.550;9.932;2023-07-20T11:31:47;18.40;1.00
837;DHT22;400;53.550;9.932;2023-07-20T11:34:15;18.40;1.00
837;DHT22;400;53.550;9.932;2023-07-20T11:36:44;18.40;1.00
837;DHT22;400;53.550;9.932;2023-07-20T11:39:13;18.60;1.00
837;DHT22;400;53.550;9.932;2023-07-20T11:41:44;18.80;1.00
837;DHT22;400;53.550;9.932;2023-07-20T11:44:11;18.80;1.00
837;DHT22;400;53.550;9.932;2023-07-20T11:46:44;19.10;1.00
837;DHT22;400;53.550;9.932;2023-07-20T11:49:15;19.10;1.00
837;DHT22;400;53.550;9.932;2023-07-20T11:51:48;19.20;1.00
837;DHT22;400;53.550;9.932;2023-07-20T11:54:25;19.30;1.00
837;DHT22;400;53.550;9.932;2023-07-20T11:56:54;19.60;1.00
837;DHT22;400;53.550;9.932;2023-07-20T11:59:21;19.70;1.00
837;DHT22;400;53.550;9.932;2023-07-20T12:01:53;19.90;1.00
837;DHT22;400;53.550;9.932;2023-07-20T12:04:25;19.80;1.00
837;DHT22;400;53.550;9.932;2023-07-20T12:06:55;19.90;1.00
837;DHT22;400;53.550;9.932;2023-07-20T12:09:24;19.80;1.00
837;DHT22;400;53.550;9.932;2023-07-20T12:11:52;20.10;1.00
837;DHT22;400;53.550;9.932;2023-07-20T12:14:25;20.20;1.00
837;DHT22;400;53.550;9.932;2023-07-20T12:16:54;20.00;1.00
837;DHT22;400;53.550;9.932;2023-07-20T12:19:26;20.10;1.00
837;DHT22;400;53.550;9.932;2023-07-20T12:21:59;20.20;1.00
837;DHT22;400;53.550;9.932;2023-07-20T12:24:28;19.70;1.00
837;DHT22;400;53.550;9.932;2023-07-20T12:27:02;19.80;1.00
837;DHT22;400;53.550;9.932;2023-07-20T12:29:36;19.80;1.00
837;DHT22;400;53.550;9.932;2023-07-20T12:32:09;19.50;1.00
837;DHT22;400;53.550;9.932;2023-07-20T12:34:39;19.60;1.00
837;DHT22;400;53.550;9.932;2023-07-20T12:37:08;19.80;1.00
837;DHT22;400;53.550;9.932;2023-07-20T12:39:38;19.80;1.00
837;DHT22;400;53.550;9.932;2023-07-20T12:42:10;19.80;1.00
837;DHT22;400;53.550;9.932;2023-07-20T12:44:42;19.90;1.00
837;DHT22;400;53.550;9.932;2023-07-20T12:47:12;19.80;1.00
837;DHT22;400;53.550;9.932;2023-07-20T12:49:42;19.80;1.00
837;DHT22;400;53.550;9.932;2023-07-20T12:52:12;19.90;1.00
837;DHT22;400;53.550;9.932;2023-07-20T12:54:41;19.80;1.00
837;DHT22;400;53.550;9.932;2023-07-20T12:57:07;19.80;1.00
837;DHT22;400;53.550;9.932;2023-07-20T12:59:35;19.80;1.00
837;DHT22;400;53.550;9.932;2023-07-20T13:02:02;19.80;1.00
837;DHT22;400;53.550;9.932;2023-07-20T13:04:31;19.80;1.00
837;DHT22;400;53.550;9.932;2023-07-20T13:06:58;19.90;1.00
837;DHT22;400;53.550;9.932;2023-07-20T13:09:25;20.10;1.00
837;DHT22;400;53.550;9.932;2023-07-20T13:11:51;20.10;1.00
837;DHT22;400;53.550;9.932;2023-07-20T13:14:19;20.00;1.00
837;DHT22;400;53.550;9.932;2023-07-20T13:16:45;20.10;1.00
837;DHT22;400;53.550;9.932;2023-07-20T13:19:12;20.10;1.00
837;DHT22;400;53.550;9.932;2023-07-20T13:21:41;20.30;1.00
837;DHT22;400;53.550;9.932;2023-07-20T13:24:10;20.40;1.00
837;DHT22;400;53.550;9.932;2023-07-20T13:26:38;20.50;1.00
837;DHT22;400;53.550;9.932;2023-07-20T13:29:05;20.30;1.00
837;DHT22;400;53.550;9.932;2023-07-20T13:31:32;20.50;1.00
837;DHT22;400;53.550;9.932;2023-07-20T13:34:01;20.40;1.00
837;DHT22;400;53.550;9.932;2023-07-20T13:36:34;20.40;1.00
837;DHT22;400;53.550;9.932;2023-07-20T13:39:05;20.50;1.00
837;DHT22;400;53.550;9.932;2023-07-20T13:41:33;20.50;1.00
837;DHT22;400;53.550;9.932;2023-07-20T13:44:00;20.60;1.00
837;DHT22;400;53.550;9.932;2023-07-20T13:46:28;20.70;1.00
837;DHT22;400;53.550;9.932;2023-07-20T13:48:54;20.80;1.00
837;DHT22;400;53.550;9.932;2023-07-20T13:51:21;20.80;1.00
837;DHT22;400;53.550;9.932;2023-07-20T13:53:48;20.70;1.00
837;DHT22;400;53.550;9.932;2023-07-20T13:56:17;20.50;1.00
837;DHT22;400;53.550;9.932;2023-07-20T13:58:43;20.50;1.00
837;DHT22;400;53.550;9.932;2023-07-20T14:01:12;20.50;1.00
837;DHT22;400;53.550;9.932;2023-07-20T14:03:39;20.50;1.00
837;DHT22;400;53.550;9.932;2023-07-20T14:06:06;20.50;1.00
837;DHT22;400;53.550;9.932;2023-07-20T14:08:35;20.40;1.00
837;DHT22;400;53.550;9.932;2023-07-20T14:11:13;20.20;1.00
837;DHT22;400;53.550;9.932;2023-07-20T14:13:47;20.10;1.00
837;DHT22;400;53.550;9.932;2023-07-20T14:16:20;20.10;1.00
837;DHT22;400;53.550;9.932;2023-07-20T14:18:50;20.10;1.00
837;DHT22;400;53.550;9.932;2023-07-20T14:21:18;20.00;1.00
837;DHT22;400;53.550;9.932;2023-07-20T14:23:46;20.20;1.00
837;DHT22;400;53.550;9.932;2023-07-20T14:26:13;20.30;1.00
837;DHT22;400;53.550;9.932;2023-07-20T14:28:40;20.10;1.00
837;DHT22;400;53.550;9.932;2023-07-20T14:31:08;20.30;1.00
837;DHT22;400;53.550;9.932;2023-07-20T14:33:35;20.30;1.00
837;DHT22;400;53.550;9.932;2023-07-20T14:36:02;20.40;1.00
837;DHT22;400;53.550;9.932;2023-07-20T14:38:31;20.40;1.00
837;DHT22;400;53.550;9.932;2023-07-20T14:40:58;20.40;1.00
837;DHT22;400;53.550;9.932;2023-07-20T14:43:25;20.50;1.00
837;DHT22;400;53.550;9.932;2023-07-20T14:45:52;20.40;1.00
837;DHT22;400;53.550;9.932;2023-07-20T14:48:21;20.40;1.00
837;DHT22;400;53.550;9.932;2023-07-20T14:50:48;20.10;1.00
837;DHT22;400;53.550;9.932;2023-07-20T14:53:15;20.30;1.00
837;DHT22;400;53.550;9.932;2023-07-20T14:55:42;20.10;1.00
837;DHT22;400;53.550;9.932;2023-07-20T14:58:09;20.10;1.00
837;DHT22;400;53.550;9.932;2023-07-20T15:00:36;20.10;1.00
837;DHT22;400;53.550;9.932;2023-07-20T15:03:03;20.00;1.00
837;DHT22;400;53.550;9.932;2023-07-20T15:05:32;20.10;1.00
837;DHT22;400;53.550;9.932;2023-07-20T15:08:02;20.00;1.00
837;DHT22;400;53.550;9.932;2023-07-20T15:10:30;20.10;1.00
837;DHT22;400;53.550;9.932;2023-07-20T15:12:59;20.40;1.00
837;DHT22;400;53.550;9.932;2023-07-20T15:15:26;20.60;1.00
837;DHT22;400;53.550;9.932;2023-07-20T15:17:53;20.50;1.00
837;DHT22;400;53.550;9.932;2023-07-20T15:20:22;20.60;1.00
837;DHT22;400;53.550;9.932;2023-07-20T15:22:51;20.50;1.00
837;DHT22;400;53.550;9.932;2023-07-20T15:25:17;20.50;1.00
837;DHT22;400;53.550;9.932;2023-07-20T15:27:44;20.50;1.00
837;DHT22;400;53.550;9.932;2023-07-20T15:30:12;20.60;1.00
837;DHT22;400;53.550;9.932;2023-07-20T15:32:45;20.70;1.00
837;DHT22;400;53.550;9.932;2023-07-20T15:35:15;20.90;1.00
837;DHT22;400;53.550;9.932;2023-07-20T15:37:45;20.60;1.00
837;DHT22;400;53.550;9.932;2023-07-20T15:40:18;20.50;1.00
837;DHT22;400;53.550;9.932;2023-07-20T15:42:48;20.40;1.00
837;DHT22;400;53.550;9.932;2023-07-20T15:45:16;20.30;1.00
837;DHT22;400;53.550;9.932;2023-07-20T15:47:43;20.30;1.00
837;DHT22;400;53.550;9.932;2023-07-20T15:50:11;20.40;1.00
837;DHT22;400;53.550;9.932;2023-07-20T15:52:39;20.30;1.00
837;DHT22;400;53.550;9.932;2023-07-20T15:55:09;20.40;1.00
837;DHT22;400;53.550;9.932;2023-07-20T15:57:41;20.30;1.00
837;DHT22;400;53.550;9.932;2023-07-20T16:00:11;20.30;1.00
837;DHT22;400;53.550;9.932;2023-07-20T16:02:41;20.40;1.00
837;DHT22;400;53.550;9.932;2023-07-20T16:05:10;20.30;1.00
837;DHT22;400;53.550;9.932;2023-07-20T16:07:36;20.40;1.00
837;DHT22;400;53.550;9.932;2023-07-20T16:10:04;20.60;1.00
837;DHT22;400;53.550;9.932;2023-07-20T16:12:33;21.50;1.00
837;DHT22;400;53.550;9.932;2023-07-20T16:15:02;21.40;1.00
837;DHT22;400;53.550;9.932;2023-07-20T16:17:30;21.70;1.00
837;DHT22;400;53.550;9.932;2023-07-20T16:19:58;22.40;1.00
837;DHT22;400;53.550;9.932;2023-07-20T16:22:26;23.10;1.00
837;DHT22;400;53.550;9.932;2023-07-20T16:25:01;23.70;1.00
837;DHT22;400;53.550;9.932;2023-07-20T16:27:29;24.10;1.00
837;DHT22;400;53.550;9.932;2023-07-20T16:29:56;24.70;1.00
837;DHT22;400;53.550;9.932;2023-07-20T16:32:25;24.60;1.00
837;DHT22;400;53.550;9.932;2023-07-20T16:34:51;25.10;1.00
837;DHT22;400;53.550;9.932;2023-07-20T16:37:20;26.40;1.00
837;DHT22;400;53.550;9.932;2023-07-20T16:39:50;27.20;1.00
837;DHT22;400;53.550;9.932;2023-07-20T16:42:19;27.50;1.00
837;DHT22;400;53.550;9.932;2023-07-20T16:44:49;27.60;1.00
837;DHT22;400;53.550;9.932;2023-07-20T16:47:16;27.70;1.00
837;DHT22;400;53.550;9.932;2023-07-20T16:49:44;28.20;1.00
837;DHT22;400;53.550;9.932;2023-07-20T16:52:14;28.00;1.00
837;DHT22;400;53.550;9.932;2023-07-20T16:54:42;27.50;1.00
837;DHT22;400;53.550;9.932;2023-07-20T16:57:09;27.20;1.00
837;DHT22;400;53.550;9.932;2023-07-20T16:59:36;27.80;1.00